Hilltop, North Carolina
Current Conditions -  °F | °C
As of 7:54 PM on Thursday 27 Nov 2014 (Local Time) from KGSO Reporting Station
Broken Clouds Broken Clouds  
Wind Chill: 32°   Ceiling: 5000
Heat Index: 39°   Visibility: 10mi
Dew Point: 25°   Wind: 10mph
Humidity: 57%   Direction: 320°NW
Pressure: 30.21"   Gusts: NA
Location:  36.011°N, 79.8751°W
Report Text: KGSO 280054Z 32009KT 10SM BKN050 04/M04 A3021 RMK AO2 SLP234 T00391039 $
Loading
Personal Weather Stations






























Interactive Weather Map New forecast layout! Learn more

10-Day Weather Forecast

Advertisements
Track Severe Weather on mobile